createdAt,value
2022-10-21T00:01:32.573Z,13.90
2022-10-21T00:04:02.203Z,13.65
2022-10-21T00:06:28.902Z,13.68
2022-10-21T00:08:55.813Z,14.10
2022-10-21T00:11:22.588Z,14.90
2022-10-21T00:13:49.298Z,14.25
2022-10-21T00:16:19.096Z,15.07
2022-10-21T00:18:47.534Z,13.45
2022-10-21T00:21:21.036Z,12.00
2022-10-21T00:23:50.049Z,12.60
2022-10-21T00:26:18.156Z,11.40
2022-10-21T00:28:45.204Z,11.02
2022-10-21T00:31:14.474Z,11.32
2022-10-21T00:33:42.212Z,11.25
2022-10-21T00:36:15.273Z,10.57
2022-10-21T00:38:44.584Z,10.75
2022-10-21T00:41:12.407Z,11.52
2022-10-21T00:43:58.026Z,9.70
2022-10-21T00:46:34.973Z,11.15
2022-10-21T00:49:06.308Z,11.45
2022-10-21T00:51:34.074Z,10.50
2022-10-21T00:54:02.607Z,10.32
2022-10-21T00:56:32.580Z,10.43
2022-10-21T00:59:02.901Z,11.25
2022-10-21T01:01:30.059Z,11.00
2022-10-21T01:03:57.065Z,10.32
2022-10-21T01:06:26.205Z,9.82
2022-10-21T01:08:54.979Z,9.48
2022-10-21T01:11:23.629Z,10.68
2022-10-21T01:14:03.041Z,10.88
2022-10-21T01:16:47.259Z,9.05
2022-10-21T01:19:33.306Z,10.13
2022-10-21T01:22:23.368Z,10.63
2022-10-21T01:25:10.290Z,11.15
2022-10-21T01:27:49.099Z,10.93
2022-10-21T01:30:37.537Z,11.13
2022-10-21T01:33:27.048Z,9.55
2022-10-21T01:36:16.116Z,8.07
2022-10-21T01:38:56.406Z,6.90
2022-10-21T01:41:34.366Z,6.20
2022-10-21T01:44:12.797Z,6.40
2022-10-21T01:46:45.118Z,6.00
2022-10-21T01:49:21.446Z,6.03
2022-10-21T01:51:48.193Z,6.43
2022-10-21T01:54:22.955Z,5.25
2022-10-21T01:56:50.804Z,5.20
2022-10-21T01:59:20.192Z,4.90
2022-10-21T02:01:48.214Z,4.63
2022-10-21T02:04:18.378Z,4.60
2022-10-21T02:06:45.363Z,4.90
2022-10-21T02:09:12.203Z,4.90
2022-10-21T02:11:40.463Z,4.75
2022-10-21T02:14:18.845Z,4.47
2022-10-21T02:16:46.837Z,4.50
2022-10-21T02:19:19.434Z,4.38
2022-10-21T02:21:49.798Z,4.03
2022-10-21T02:24:25.477Z,4.15
2022-10-21T02:26:52.265Z,4.78
2022-10-21T02:29:26.998Z,3.88
2022-10-21T02:32:15.003Z,4.07
2022-10-21T02:35:29.620Z,3.55
2022-10-21T02:38:06.592Z,3.53
2022-10-21T02:40:45.095Z,3.75
2022-10-21T02:43:41.985Z,4.15
2022-10-21T02:46:11.497Z,3.83
2022-10-21T02:48:40.132Z,4.30
2022-10-21T02:51:08.345Z,4.00
2022-10-21T02:53:35.439Z,4.32
2022-10-21T02:56:02.831Z,3.85
2022-10-21T02:58:29.834Z,3.80
2022-10-21T03:00:56.602Z,3.90
2022-10-21T03:03:23.373Z,4.03
2022-10-21T03:05:50.175Z,3.80
2022-10-21T03:08:17.172Z,4.00
2022-10-21T03:10:45.430Z,3.83
2022-10-21T03:13:14.695Z,4.00
2022-10-21T03:15:41.516Z,3.75
2022-10-21T03:18:08.215Z,3.75
2022-10-21T03:20:34.967Z,4.07
2022-10-21T03:23:01.653Z,3.50
2022-10-21T03:25:31.726Z,3.75
2022-10-21T03:28:02.112Z,3.88
2022-10-21T03:30:28.808Z,3.75
2022-10-21T03:32:55.536Z,3.72
2022-10-21T03:35:22.269Z,3.88
2022-10-21T03:37:49.082Z,3.58
2022-10-21T03:40:15.915Z,3.33
2022-10-21T03:42:42.673Z,4.28
2022-10-21T03:45:09.791Z,4.38
2022-10-21T03:47:36.493Z,4.47
2022-10-21T03:50:05.474Z,5.30
2022-10-21T03:52:34.485Z,5.88
2022-10-21T03:55:01.151Z,6.35
2022-10-21T03:57:27.869Z,6.50
2022-10-21T03:59:54.596Z,5.72
2022-10-21T04:02:21.293Z,5.15
2022-10-21T04:04:47.957Z,4.90
2022-10-21T04:07:14.634Z,5.78
2022-10-21T04:09:41.328Z,5.57
2022-10-21T04:12:08.086Z,11.43
2022-10-21T04:14:35.011Z,12.23
2022-10-21T04:17:07.523Z,14.15
2022-10-21T04:19:34.809Z,13.32
2022-10-21T04:22:01.552Z,11.85
2022-10-21T04:24:28.267Z,12.38
2022-10-21T04:26:55.046Z,12.40
2022-10-21T04:29:21.823Z,10.38
2022-10-21T04:31:48.713Z,9.27
2022-10-21T04:34:15.487Z,7.00
2022-10-21T04:36:42.185Z,8.75
2022-10-21T04:39:08.910Z,8.20
2022-10-21T04:41:35.819Z,7.95
2022-10-21T04:44:03.479Z,7.25
2022-10-21T04:46:30.971Z,7.80
2022-10-21T04:48:57.687Z,7.90
2022-10-21T04:51:24.657Z,7.20
2022-10-21T04:53:51.404Z,5.93
2022-10-21T04:56:18.120Z,6.30
2022-10-21T04:58:44.881Z,5.63
2022-10-21T05:01:11.688Z,5.38
2022-10-21T05:03:38.449Z,5.78
2022-10-21T05:06:05.375Z,7.72
2022-10-21T05:08:32.135Z,8.63
2022-10-21T05:11:00.729Z,8.85
2022-10-21T05:13:28.906Z,9.25
2022-10-21T05:16:00.661Z,10.48
2022-10-21T05:18:27.434Z,7.38
2022-10-21T05:20:55.535Z,8.35
2022-10-21T05:23:22.989Z,7.05
2022-10-21T05:25:51.870Z,7.28
2022-10-21T05:28:19.837Z,7.68
2022-10-21T05:30:47.075Z,7.68
2022-10-21T05:33:13.783Z,8.00
2022-10-21T05:35:40.553Z,8.45
2022-10-21T05:38:07.384Z,8.40
2022-10-21T05:40:34.303Z,6.90
2022-10-21T05:43:01.048Z,7.35
2022-10-21T05:45:27.993Z,5.93
2022-10-21T05:47:54.733Z,6.60
2022-10-21T05:50:21.610Z,6.53
2022-10-21T05:52:48.409Z,6.53
2022-10-21T05:55:15.510Z,6.65
2022-10-21T05:57:42.298Z,7.55
2022-10-21T06:00:09.930Z,7.72
2022-10-21T06:02:36.946Z,6.30
2022-10-21T06:05:04.110Z,6.10
2022-10-21T06:07:30.811Z,5.50
2022-10-21T06:09:58.077Z,5.68
2022-10-21T06:12:24.850Z,6.45
2022-10-21T06:14:51.789Z,15.25
2022-10-21T06:17:18.491Z,15.55
2022-10-21T06:19:48.646Z,14.48
2022-10-21T06:22:17.879Z,12.65
2022-10-21T06:24:44.606Z,6.72
2022-10-21T06:27:11.381Z,6.85
2022-10-21T06:29:38.102Z,5.68
2022-10-21T06:32:04.963Z,6.40
2022-10-21T06:34:31.643Z,7.00
2022-10-21T06:36:58.362Z,9.38
2022-10-21T06:39:25.225Z,9.23
2022-10-21T06:41:52.082Z,7.68
2022-10-21T06:44:18.947Z,7.30
2022-10-21T06:46:45.704Z,7.88
2022-10-21T06:49:12.512Z,6.45
2022-10-21T06:51:39.433Z,8.52
2022-10-21T06:54:06.274Z,9.10
2022-10-21T06:56:33.048Z,9.43
2022-10-21T06:58:59.830Z,9.32
2022-10-21T07:01:40.999Z,10.38
2022-10-21T07:04:15.014Z,11.20
2022-10-21T07:06:41.735Z,11.38
2022-10-21T07:09:09.237Z,8.95
2022-10-21T07:11:37.280Z,8.73
2022-10-21T07:14:04.617Z,9.40
2022-10-21T07:16:34.139Z,8.63
2022-10-21T07:19:01.000Z,9.38
2022-10-21T07:21:30.071Z,7.30
2022-10-21T07:23:59.543Z,7.05
2022-10-21T07:26:28.933Z,7.13
2022-10-21T07:28:58.555Z,6.90
2022-10-21T07:31:25.605Z,6.32
2022-10-21T07:33:53.244Z,5.75
2022-10-21T07:36:26.426Z,5.55
2022-10-21T07:38:55.694Z,5.38
2022-10-21T07:41:33.170Z,5.30
2022-10-21T07:44:00.346Z,4.82
2022-10-21T07:46:27.245Z,5.03
2022-10-21T07:48:54.251Z,5.13
2022-10-21T07:51:28.360Z,5.50
2022-10-21T07:53:57.125Z,5.05
2022-10-21T07:56:28.636Z,5.18
2022-10-21T07:58:55.584Z,5.68
2022-10-21T08:01:22.507Z,6.10
2022-10-21T08:03:49.795Z,5.78
2022-10-21T08:06:17.800Z,4.80
2022-10-21T08:08:45.501Z,4.50
2022-10-21T08:11:12.677Z,5.45
2022-10-21T08:13:41.697Z,4.60
2022-10-21T08:16:08.387Z,4.63
2022-10-21T08:18:35.134Z,4.25
2022-10-21T08:21:03.786Z,4.95
2022-10-21T08:23:31.127Z,5.03
2022-10-21T08:26:00.834Z,9.85
2022-10-21T08:28:29.719Z,4.70
2022-10-21T08:31:08.664Z,11.07
2022-10-21T08:33:36.334Z,8.00
2022-10-21T08:36:08.363Z,8.50
2022-10-21T08:38:35.757Z,7.45
2022-10-21T08:41:03.009Z,7.57
2022-10-21T08:43:33.183Z,7.70
2022-10-21T08:46:13.644Z,5.30
2022-10-21T08:48:47.805Z,4.28
2022-10-21T08:51:29.253Z,6.60
2022-10-21T08:56:26.139Z,5.00
2022-10-21T08:58:53.084Z,4.72
2022-10-21T09:02:06.314Z,4.10
2022-10-21T09:04:56.228Z,5.10
2022-10-21T09:07:55.216Z,4.63
2022-10-21T09:10:39.091Z,5.03
2022-10-21T09:13:22.852Z,5.53
2022-10-21T09:16:15.795Z,4.45
2022-10-21T09:19:03.744Z,5.03
2022-10-21T09:22:05.844Z,5.22
2022-10-21T09:24:53.598Z,5.32
2022-10-21T09:27:32.169Z,6.75
2022-10-21T09:30:08.023Z,6.80
2022-10-21T09:32:41.195Z,5.90
2022-10-21T09:35:26.975Z,4.80
2022-10-21T09:38:02.646Z,5.57
2022-10-21T09:40:31.462Z,7.15
2022-10-21T09:43:00.750Z,5.90
2022-10-21T09:45:41.425Z,5.43
2022-10-21T09:48:20.141Z,4.40
2022-10-21T09:50:51.269Z,4.28
2022-10-21T09:54:05.110Z,4.50
2022-10-21T09:56:39.226Z,4.60
2022-10-21T09:59:12.276Z,4.60
2022-10-21T10:01:41.414Z,4.35
2022-10-21T10:04:16.905Z,4.05
2022-10-21T10:06:45.072Z,4.93
2022-10-21T10:09:34.352Z,4.78
2022-10-21T10:12:30.913Z,4.95
2022-10-21T10:15:29.377Z,4.90
2022-10-21T10:18:07.491Z,4.75
2022-10-21T10:20:34.609Z,4.82
2022-10-21T10:23:01.305Z,4.00
2022-10-21T10:25:33.155Z,4.28
2022-10-21T10:28:10.840Z,4.00
2022-10-21T10:30:59.751Z,3.90
2022-10-21T10:33:36.266Z,4.30
2022-10-21T10:36:09.390Z,4.50
2022-10-21T10:38:41.577Z,4.28
2022-10-21T10:41:14.343Z,4.30
2022-10-21T10:43:53.662Z,4.88
2022-10-21T10:46:26.361Z,4.22
2022-10-21T10:48:56.048Z,4.25
2022-10-21T10:51:23.327Z,4.35
2022-10-21T10:54:12.041Z,4.90
2022-10-21T10:56:49.035Z,4.47
2022-10-21T10:59:38.582Z,5.97
2022-10-21T11:02:10.954Z,4.63
2022-10-21T11:04:45.314Z,4.30
2022-10-21T11:07:30.307Z,4.40
2022-10-21T11:10:24.944Z,5.05
2022-10-21T11:12:52.284Z,4.22
2022-10-21T11:15:27.333Z,4.07
2022-10-21T11:18:23.007Z,4.05
2022-10-21T11:21:07.699Z,4.60
2022-10-21T11:24:06.785Z,4.75
2022-10-21T11:27:13.537Z,4.75
2022-10-21T11:29:53.834Z,4.47
2022-10-21T11:32:38.093Z,4.68
2022-10-21T11:35:41.935Z,5.13
2022-10-21T11:38:17.832Z,4.88
2022-10-21T11:40:55.277Z,5.13
2022-10-21T11:43:31.226Z,4.82
2022-10-21T11:46:35.916Z,4.70
2022-10-21T11:49:14.013Z,4.05
2022-10-21T11:52:11.212Z,4.28
2022-10-21T11:55:09.950Z,5.15
2022-10-21T11:58:04.613Z,4.07
2022-10-21T12:00:46.966Z,4.20
2022-10-21T12:03:25.162Z,4.25
2022-10-21T12:06:02.849Z,4.60
2022-10-21T12:08:58.460Z,4.00
2022-10-21T12:11:46.424Z,3.88
2022-10-21T12:14:31.816Z,4.20
2022-10-21T12:17:02.132Z,4.05
2022-10-21T12:19:29.333Z,3.95
2022-10-21T12:21:56.098Z,5.15
2022-10-21T12:24:32.329Z,4.85
2022-10-21T12:27:11.236Z,5.53
2022-10-21T12:29:42.888Z,4.40
2022-10-21T12:32:28.389Z,5.13
2022-10-21T12:34:55.991Z,4.95
2022-10-21T12:38:02.792Z,4.60
2022-10-21T12:40:29.495Z,5.30
2022-10-21T12:43:16.577Z,4.88
2022-10-21T12:45:44.584Z,4.82
2022-10-21T12:48:33.190Z,4.95
2022-10-21T12:51:07.123Z,4.93
2022-10-21T12:53:39.135Z,4.95
2022-10-21T12:56:07.709Z,5.22
2022-10-21T12:58:39.594Z,4.50
2022-10-21T13:01:27.399Z,7.07
2022-10-21T13:03:55.935Z,5.40
2022-10-21T13:06:52.502Z,5.72
2022-10-21T13:09:31.522Z,5.47
2022-10-21T13:12:28.327Z,5.95
2022-10-21T13:15:20.738Z,5.80
2022-10-21T13:17:57.830Z,6.10
2022-10-21T13:20:24.921Z,5.97
2022-10-21T13:23:14.643Z,5.88
2022-10-21T13:25:41.464Z,6.25
2022-10-21T13:28:14.116Z,5.70
2022-10-21T13:30:58.703Z,5.38
2022-10-21T13:33:33.670Z,5.60
2022-10-21T13:36:13.028Z,6.88
2022-10-21T13:38:50.022Z,6.00
2022-10-21T13:41:30.951Z,6.63
2022-10-21T13:44:04.335Z,7.25
2022-10-21T13:46:43.583Z,7.03
2022-10-21T13:49:32.544Z,7.50
2022-10-21T13:51:59.456Z,7.88
2022-10-21T13:54:26.302Z,6.63
2022-10-21T13:56:53.035Z,7.07
2022-10-21T13:59:32.775Z,7.93
2022-10-21T14:01:59.505Z,8.70
2022-10-21T14:04:28.825Z,8.40
2022-10-21T14:07:08.868Z,8.30
2022-10-21T14:09:46.310Z,9.18
2022-10-21T14:12:34.007Z,6.63
2022-10-21T14:15:14.258Z,6.57
2022-10-21T14:17:44.267Z,6.43
2022-10-21T14:20:18.202Z,7.00
2022-10-21T14:22:50.295Z,6.13
2022-10-21T14:25:18.608Z,7.40
2022-10-21T14:27:47.363Z,7.57
2022-10-21T14:30:34.922Z,8.15
2022-10-21T14:33:04.677Z,7.55
2022-10-21T14:35:32.226Z,7.30
2022-10-21T14:38:01.315Z,7.97
2022-10-21T14:40:41.022Z,8.10
2022-10-21T14:43:13.587Z,7.82
2022-10-21T14:46:08.058Z,6.93
2022-10-21T14:48:44.013Z,6.70
2022-10-21T14:51:21.241Z,6.82
2022-10-21T14:54:02.304Z,7.88
2022-10-21T14:56:43.323Z,7.70
2022-10-21T14:59:24.530Z,7.60
2022-10-21T15:01:52.054Z,7.82
2022-10-21T15:04:57.311Z,8.25
2022-10-21T15:10:04.504Z,8.48
2022-10-21T15:12:50.474Z,8.77
2022-10-21T15:15:53.254Z,9.23
2022-10-21T15:18:32.397Z,19.40
2022-10-21T15:21:03.412Z,13.50
2022-10-21T15:23:39.530Z,10.15
2022-10-21T15:26:21.582Z,9.93
2022-10-21T15:28:49.170Z,8.68
2022-10-21T15:31:18.431Z,8.25
2022-10-21T15:33:45.227Z,8.18
2022-10-21T15:36:13.286Z,8.90
2022-10-21T15:38:47.529Z,7.20
2022-10-21T15:41:23.441Z,6.93
2022-10-21T15:43:56.200Z,7.20
2022-10-21T15:46:24.904Z,7.03
2022-10-21T15:48:51.873Z,8.40
2022-10-21T15:51:19.129Z,8.80
2022-10-21T15:53:45.847Z,8.88
2022-10-21T15:56:14.589Z,7.88
2022-10-21T15:58:41.666Z,8.32
2022-10-21T16:01:14.804Z,8.05
2022-10-21T16:03:42.544Z,8.18
2022-10-21T16:06:17.146Z,8.45
2022-10-21T16:08:44.263Z,7.57
2022-10-21T16:11:25.595Z,8.18
2022-10-21T16:14:01.864Z,7.82
2022-10-21T16:16:28.820Z,7.63
2022-10-21T16:53:30.288Z,9.52
2022-10-21T16:55:58.154Z,10.13
2022-10-21T16:58:24.853Z,7.88
2022-10-21T17:00:52.298Z,8.40
2022-10-21T17:03:19.092Z,7.65
2022-10-21T17:05:45.814Z,7.57
2022-10-21T17:08:12.993Z,8.00
2022-10-21T17:10:39.864Z,8.13
2022-10-21T17:13:06.937Z,8.65
2022-10-21T17:15:33.748Z,8.27
2022-10-21T17:18:00.717Z,10.55
2022-10-21T17:20:31.498Z,11.80
2022-10-21T17:23:04.920Z,7.78
2022-10-21T17:25:31.857Z,8.48
2022-10-21T17:27:58.673Z,8.63
2022-10-21T17:30:25.472Z,8.75
2022-10-21T17:32:53.650Z,7.55
2022-10-21T17:35:20.570Z,8.30
2022-10-21T17:37:53.354Z,7.13
2022-10-21T17:40:26.159Z,7.70
2022-10-21T17:42:53.748Z,7.40
2022-10-21T17:45:22.404Z,7.40
2022-10-21T17:47:50.368Z,7.90
2022-10-21T17:50:23.607Z,7.57
2022-10-21T17:52:51.851Z,6.70
2022-10-21T17:55:19.487Z,6.88
2022-10-21T17:57:46.796Z,7.03
2022-10-21T18:00:14.251Z,7.63
2022-10-21T18:02:42.161Z,6.80
2022-10-21T18:05:10.483Z,6.90
2022-10-21T18:07:38.204Z,7.20
2022-10-21T18:10:07.269Z,8.43
2022-10-21T18:12:35.946Z,7.90
2022-10-21T18:15:03.147Z,6.60
2022-10-21T18:17:31.081Z,6.80
2022-10-21T18:19:58.283Z,6.60
2022-10-21T18:22:25.859Z,6.63
2022-10-21T18:24:53.552Z,6.45
2022-10-21T18:27:22.791Z,6.78
2022-10-21T18:29:50.174Z,7.32
2022-10-21T18:32:18.152Z,7.95
2022-10-21T18:34:45.404Z,7.90
2022-10-21T18:37:12.727Z,6.75
2022-10-21T18:39:40.256Z,7.25
2022-10-21T18:42:07.302Z,6.68
2022-10-21T18:44:34.523Z,7.38
2022-10-21T18:47:01.727Z,6.88
2022-10-21T18:49:29.034Z,6.55
2022-10-21T18:51:56.321Z,6.57
2022-10-21T18:54:23.539Z,7.22
2022-10-21T18:56:50.771Z,7.60
2022-10-21T18:59:18.089Z,6.75
2022-10-21T19:01:45.441Z,7.25
2022-10-21T19:06:41.528Z,6.78
2022-10-21T19:09:13.858Z,6.95
2022-10-21T19:11:42.095Z,7.03
2022-10-21T19:14:11.360Z,6.43
2022-10-21T19:16:41.574Z,5.93
2022-10-21T19:19:09.537Z,6.32
2022-10-21T19:21:37.958Z,6.40
2022-10-21T19:24:05.687Z,6.57
2022-10-21T19:26:35.920Z,6.03
2022-10-21T19:29:23.822Z,6.10
2022-10-21T19:31:50.923Z,5.68
2022-10-21T19:34:21.597Z,6.07
2022-10-21T19:36:49.124Z,6.27
2022-10-21T19:39:17.020Z,6.15
2022-10-21T19:41:44.328Z,6.30
2022-10-21T19:44:12.728Z,5.70
2022-10-21T19:46:39.999Z,5.90
2022-10-21T19:49:09.808Z,5.82
2022-10-21T19:51:37.615Z,6.25
2022-10-21T19:54:06.657Z,5.70
2022-10-21T19:56:34.602Z,6.10
2022-10-21T19:59:03.191Z,7.05
2022-10-21T20:01:35.368Z,5.70
2022-10-21T20:04:04.113Z,6.03
2022-10-21T20:06:33.704Z,5.72
2022-10-21T20:09:04.683Z,5.95
2022-10-21T20:11:31.966Z,5.80
2022-10-21T20:14:00.714Z,6.18
2022-10-21T20:16:29.082Z,6.32
2022-10-21T20:18:57.204Z,6.80
2022-10-21T20:21:25.671Z,6.47
2022-10-21T20:23:53.235Z,5.70
2022-10-21T20:26:20.709Z,5.95
2022-10-21T20:28:47.825Z,8.73
2022-10-21T20:31:16.283Z,7.75
2022-10-21T20:33:46.858Z,6.50
2022-10-21T20:36:17.520Z,5.95
2022-10-21T20:38:48.749Z,6.87
2022-10-21T20:41:27.131Z,5.55
2022-10-21T20:43:55.258Z,6.30
2022-10-21T20:46:24.044Z,7.03
2022-10-21T20:48:52.272Z,6.30
2022-10-21T20:51:25.366Z,6.22
2022-10-21T20:53:57.652Z,6.00
2022-10-21T20:56:33.701Z,7.38
2022-10-21T20:59:01.045Z,6.28
2022-10-21T21:01:32.761Z,6.63
2022-10-21T21:04:02.309Z,5.85
2022-10-21T21:06:29.119Z,6.55
2022-10-21T21:09:25.714Z,6.57
2022-10-21T21:11:42.623Z,5.57
2022-10-21T21:14:09.332Z,6.18
2022-10-21T21:16:36.128Z,6.30
2022-10-21T21:19:05.624Z,5.78
2022-10-21T21:21:34.773Z,5.18
2022-10-21T21:24:02.070Z,6.13
2022-10-21T21:26:34.884Z,6.80
2022-10-21T21:29:01.645Z,6.43
2022-10-21T21:31:31.161Z,6.82
2022-10-21T21:33:58.026Z,6.00
2022-10-21T21:36:25.372Z,6.18
2022-10-21T21:38:54.217Z,5.38
2022-10-21T21:41:23.234Z,6.70
2022-10-21T21:43:51.705Z,5.97
2022-10-21T21:46:24.049Z,5.53
2022-10-21T21:48:59.644Z,5.72
2022-10-21T21:51:29.677Z,5.90
2022-10-21T21:53:57.433Z,5.70
2022-10-21T21:56:25.366Z,5.80
2022-10-21T21:58:54.815Z,6.15
2022-10-21T22:01:23.794Z,6.13
2022-10-21T22:03:52.022Z,5.80
2022-10-21T22:06:23.762Z,6.00
2022-10-21T22:08:51.091Z,5.72
2022-10-21T22:11:21.225Z,5.70
2022-10-21T22:13:48.068Z,6.30
2022-10-21T22:16:16.278Z,5.82
2022-10-21T22:18:43.606Z,5.80
2022-10-21T22:21:13.340Z,6.00
2022-10-21T22:23:40.801Z,6.47
2022-10-21T22:26:08.877Z,5.68
2022-10-21T22:28:35.692Z,5.78
2022-10-21T22:31:08.619Z,5.30
2022-10-21T22:33:35.887Z,5.72
2022-10-21T22:36:03.638Z,5.63
2022-10-21T22:38:30.455Z,5.00
2022-10-21T22:40:59.403Z,5.93
2022-10-21T22:43:27.257Z,5.22
2022-10-21T22:46:01.145Z,5.47
2022-10-21T22:48:41.229Z,5.35
2022-10-21T22:51:07.930Z,5.35
2022-10-21T22:53:35.528Z,5.07
2022-10-21T22:56:02.480Z,5.35
2022-10-21T22:58:29.285Z,5.55
2022-10-21T23:03:27.605Z,5.43
2022-10-21T23:05:54.339Z,5.30
2022-10-21T23:08:21.239Z,5.50
2022-10-21T23:10:49.215Z,5.15
2022-10-21T23:13:16.470Z,5.28
2022-10-21T23:15:43.992Z,4.60
2022-10-21T23:18:10.922Z,5.13
2022-10-21T23:20:37.756Z,5.30
2022-10-21T23:23:04.573Z,5.15
2022-10-21T23:25:31.253Z,5.40
2022-10-21T23:27:58.086Z,4.97
2022-10-21T23:30:24.989Z,5.03
2022-10-21T23:32:51.828Z,4.75
2022-10-21T23:35:18.871Z,4.55
2022-10-21T23:37:45.807Z,5.15
2022-10-21T23:40:13.469Z,4.65
2022-10-21T23:42:42.827Z,4.20
2022-10-21T23:45:11.550Z,5.03
2022-10-21T23:47:39.862Z,4.60
2022-10-21T23:50:08.810Z,5.18
2022-10-21T23:52:37.118Z,4.97
2022-10-21T23:55:08.265Z,5.10
2022-10-21T23:57:35.552Z,4.97
